Time;durP1;ratioP1;P1;durP2;ratioP2;P2;SDS_P1;SDS_P2;PMS_P1;PMS_P2;Temp;Humidity;BMP_temperature;BMP_pressure;BME280_temperature;BME280_humidity;BME280_pressure;Samples;Min_cycle;Max_cycle;Signal;HPM_P1;HPM_P2
2022/12/21 00:00:48;;;;;;;;;;;;;;;;;;6213977;23;20257;-74
2022/12/21 00:03:14;;;;;;;;;;;;;;;;;;6240413;23;19912;-74
2022/12/21 00:05:40;;;;;;;;;;;;;;;;;;6240920;23;20349;-74
2022/12/21 00:08:05;;;;;;;;;;;;;;;;;;6241085;23;19915;-75
2022/12/21 00:10:31;;;;;;;;;;;;;;;;;;6213752;23;19995;-74
2022/12/21 00:12:57;;;;;;;;;;;;;;;;;;6240634;23;19919;-74
2022/12/21 00:15:22;;;;;;;;;;;;;;;;;;6240451;23;19915;-75
2022/12/21 00:17:48;;;;;;;;;;;;;;;;;;6213540;23;19911;-75
2022/12/21 00:20:14;;;;;;;;;;;;;;;;;;6213407;23;19920;-74
2022/12/21 00:22:39;;;;;;;;;;;;;;;;;;6240561;23;19912;-74
2022/12/21 00:25:05;;;;;;;;;;;;;;;;;;6240735;23;20345;-75
2022/12/21 00:27:31;;;;;;;;;;;;;;;;;;6213694;23;20030;-75
2022/12/21 00:29:56;;;;;;;;;;;;;;;;;;6213826;23;19961;-76
2022/12/21 00:32:22;;;;;;;;;;;;;;;;;;6240348;23;19923;-75
2022/12/21 00:34:48;;;;;;;;;;;;;;;;;;6213357;23;20695;-74
2022/12/21 00:37:15;;;;;;;;;;;;;;;;;;6240656;23;19916;-75
2022/12/21 00:39:40;;;;;;;;;;;;;;;;;;6241087;23;19920;-75
2022/12/21 00:42:06;;;;;;;;;;;;;;;;;;6214521;23;20363;-75
2022/12/21 00:44:32;;;;;;;;;;;;;;;;;;6214407;23;19915;-76
2022/12/21 00:46:58;;;;;;;;;;;;;;;;;;6215215;23;20690;-76
2022/12/21 00:49:23;;;;;;;;;;;;;;;;;;6215135;23;20241;-76
2022/12/21 00:51:49;;;;;;;;;;;;;;;;;;6241920;23;19918;-74
2022/12/21 00:54:16;;;;;;;;;;;;;;;;;;6241334;23;19912;-74
2022/12/21 00:56:42;;;;;;;;;;;;;;;;;;6241731;23;19965;-74
2022/12/21 00:59:08;;;;;;;;;;;;;;;;;;6241078;23;19920;-75
2022/12/21 01:01:34;;;;;;;;;;;;;;;;;;6189175;23;19912;-75
2022/12/21 01:03:59;;;;;;;;;;;;;;;;;;6214361;23;19918;-75
2022/12/21 01:06:25;;;;;;;;;;;;;;;;;;6241241;23;19911;-76
2022/12/21 01:08:51;;;;;;;;;;;;;;;;;;6242259;23;19918;-73
2022/12/21 01:11:16;;;;;;;;;;;;;;;;;;6240983;23;19924;-75
2022/12/21 01:13:42;;;;;;;;;;;;;;;;;;6189620;23;19916;-74
2022/12/21 01:16:08;;;;;;;;;;;;;;;;;;6189164;23;19998;-77
2022/12/21 01:18:34;;;;;;;;;;;;;;;;;;6213667;23;19919;-75
2022/12/21 01:21:01;;;;;;;;;;;;;;;;;;6214241;23;20371;-74
2022/12/21 01:23:27;;;;;;;;;;;;;;;;;;6240714;23;19918;-74
2022/12/21 01:25:53;;;;;;;;;;;;;;;;;;6214142;23;19915;-75
2022/12/21 01:28:18;;;;;;;;;;;;;;;;;;6241107;23;19919;-75
2022/12/21 01:30:45;;;;;;;;;;;;;;;;;;6241519;23;20349;-75
2022/12/21 01:33:11;;;;;;;;;;;;;;;;;;6240805;23;19919;-75
2022/12/21 01:35:37;;;;;;;;;;;;;;;;;;6214730;23;20379;-77
2022/12/21 01:38:03;;;;;;;;;;;;;;;;;;6213997;23;19916;-76
2022/12/21 01:40:29;;;;;;;;;;;;;;;;;;6214203;23;19926;-75
2022/12/21 01:42:55;;;;;;;;;;;;;;;;;;6241014;23;19911;-75
2022/12/21 01:45:21;;;;;;;;;;;;;;;;;;6213294;23;19919;-76
2022/12/21 01:47:46;;;;;;;;;;;;;;;;;;6213943;23;20003;-74
2022/12/21 01:50:12;;;;;;;;;;;;;;;;;;6240528;23;19914;-74
2022/12/21 01:52:37;;;;;;;;;;;;;;;;;;6240297;23;19912;-75
2022/12/21 01:55:03;;;;;;;;;;;;;;;;;;6213941;23;19911;-75
2022/12/21 01:57:29;;;;;;;;;;;;;;;;;;6213807;23;19938;-75
2022/12/21 01:59:55;;;;;;;;;;;;;;;;;;6213773;23;19950;-75
2022/12/21 02:02:21;;;;;;;;;;;;;;;;;;6214027;23;19918;-75
2022/12/21 02:04:47;;;;;;;;;;;;;;;;;;6240707;23;20847;-75
2022/12/21 02:07:12;;;;;;;;;;;;;;;;;;6189189;23;19919;-74
2022/12/21 02:09:38;;;;;;;;;;;;;;;;;;6241049;23;19918;-75
2022/12/21 02:12:04;;;;;;;;;;;;;;;;;;6240707;23;19985;-74
2022/12/21 02:14:29;;;;;;;;;;;;;;;;;;6214122;23;19939;-74
2022/12/21 02:16:55;;;;;;;;;;;;;;;;;;6242715;23;19911;-75
2022/12/21 02:19:21;;;;;;;;;;;;;;;;;;6215215;23;19919;-75
2022/12/21 02:21:46;;;;;;;;;;;;;;;;;;6242115;23;20299;-76
2022/12/21 02:24:12;;;;;;;;;;;;;;;;;;6241805;23;19923;-75
2022/12/21 02:26:38;;;;;;;;;;;;;;;;;;6215797;23;19918;-75
2022/12/21 02:29:03;;;;;;;;;;;;;;;;;;6242697;23;19911;-75
2022/12/21 02:31:31;;;;;;;;;;;;;;;;;;6241906;23;19923;-75
2022/12/21 02:33:56;;;;;;;;;;;;;;;;;;6242067;23;19995;-76
2022/12/21 02:36:22;;;;;;;;;;;;;;;;;;6191106;23;19912;-76
2022/12/21 02:38:48;;;;;;;;;;;;;;;;;;6215692;23;19954;-75
2022/12/21 02:41:14;;;;;;;;;;;;;;;;;;6216217;23;19945;-76
2022/12/21 02:46:25;;;;;;;;;;;;;;;;;;6190760;23;19911;-74
2022/12/21 02:48:50;;;;;;;;;;;;;;;;;;6243183;23;19918;-75
2022/12/21 02:51:16;;;;;;;;;;;;;;;;;;6191088;23;19919;-75
2022/12/21 02:53:42;;;;;;;;;;;;;;;;;;6242845;23;19939;-74
2022/12/21 02:56:08;;;;;;;;;;;;;;;;;;6216017;23;19912;-75
2022/12/21 02:58:34;;;;;;;;;;;;;;;;;;6215528;23;19920;-75
2022/12/21 03:00:59;;;;;;;;;;;;;;;;;;6242128;23;19990;-75
2022/12/21 03:06:12;;;;;;;;;;;;;;;;;;6218823;23;19986;-74
2022/12/21 03:08:37;;;;;;;;;;;;;;;;;;6231556;23;19912;-74
2022/12/21 03:11:03;;;;;;;;;;;;;;;;;;6226911;23;19935;-76
2022/12/21 03:13:29;;;;;;;;;;;;;;;;;;6227871;23;20002;-75
2022/12/21 03:15:55;;;;;;;;;;;;;;;;;;6226896;23;19923;-74
2022/12/21 03:18:22;;;;;;;;;;;;;;;;;;6215644;23;19907;-74
2022/12/21 03:20:47;;;;;;;;;;;;;;;;;;6212193;23;20337;-75
2022/12/21 03:23:13;;;;;;;;;;;;;;;;;;6209339;23;19916;-74
2022/12/21 03:25:39;;;;;;;;;;;;;;;;;;6212645;23;19918;-73
2022/12/21 03:28:04;;;;;;;;;;;;;;;;;;6212450;23;19990;-75
2022/12/21 03:30:30;;;;;;;;;;;;;;;;;;6209649;23;20003;-74
2022/12/21 03:32:56;;;;;;;;;;;;;;;;;;6211724;23;19912;-75
2022/12/21 03:35:21;;;;;;;;;;;;;;;;;;6211450;23;20353;-75
2022/12/21 03:37:47;;;;;;;;;;;;;;;;;;6212087;23;19912;-75
2022/12/21 03:40:13;;;;;;;;;;;;;;;;;;6211028;23;20345;-74
2022/12/21 03:42:40;;;;;;;;;;;;;;;;;;6210362;23;19919;-74
2022/12/21 03:45:05;;;;;;;;;;;;;;;;;;6210010;23;19915;-75
2022/12/21 03:47:31;;;;;;;;;;;;;;;;;;6211086;23;20433;-75
2022/12/21 03:49:57;;;;;;;;;;;;;;;;;;6210903;23;19916;-75
2022/12/21 03:52:23;;;;;;;;;;;;;;;;;;6209263;23;20257;-75
2022/12/21 03:54:48;;;;;;;;;;;;;;;;;;6210611;23;20359;-74
2022/12/21 03:57:14;;;;;;;;;;;;;;;;;;6208317;23;19916;-74
2022/12/21 03:59:39;;;;;;;;;;;;;;;;;;6211171;23;19982;-74
2022/12/21 04:02:05;;;;;;;;;;;;;;;;;;6210571;23;19947;-75
2022/12/21 04:04:31;;;;;;;;;;;;;;;;;;6208910;23;20343;-75
2022/12/21 04:06:56;;;;;;;;;;;;;;;;;;6210405;23;19912;-75
2022/12/21 04:09:22;;;;;;;;;;;;;;;;;;6210256;23;19962;-74
2022/12/21 04:14:32;;;;;;;;;;;;;;;;;;6241596;23;19916;-74
2022/12/21 04:16:58;;;;;;;;;;;;;;;;;;6215266;23;20039;-74
2022/12/21 04:22:08;;;;;;;;;;;;;;;;;;6214868;23;19911;-74
2022/12/21 04:30:10;;;;;;;;;;;;;;;;;;6215111;23;19918;-74
2022/12/21 04:32:35;;;;;;;;;;;;;;;;;;6240084;23;19912;-74
2022/12/21 04:35:01;;;;;;;;;;;;;;;;;;6240355;23;19915;-74
2022/12/21 04:37:31;;;;;;;;;;;;;;;;;;6212478;23;19918;-74
2022/12/21 04:39:56;;;;;;;;;;;;;;;;;;6211448;23;20050;-74
2022/12/21 04:42:22;;;;;;;;;;;;;;;;;;6212275;23;19943;-74
2022/12/21 04:44:47;;;;;;;;;;;;;;;;;;6213993;23;19990;-74
2022/12/21 04:47:13;;;;;;;;;;;;;;;;;;6212693;23;19918;-73
2022/12/21 04:49:38;;;;;;;;;;;;;;;;;;6239083;23;19918;-73
2022/12/21 04:52:04;;;;;;;;;;;;;;;;;;6240104;23;20314;-73
2022/12/21 04:54:30;;;;;;;;;;;;;;;;;;6239744;23;19962;-73
2022/12/21 04:56:55;;;;;;;;;;;;;;;;;;6240598;23;19912;-74
2022/12/21 04:59:21;;;;;;;;;;;;;;;;;;6240639;23;20006;-73
2022/12/21 05:01:51;;;;;;;;;;;;;;;;;;6214963;23;19916;-73
2022/12/21 05:04:17;;;;;;;;;;;;;;;;;;6190579;23;20233;-73
2022/12/21 05:06:47;;;;;;;;;;;;;;;;;;6241804;23;19911;-73
2022/12/21 05:09:13;;;;;;;;;;;;;;;;;;6189102;23;20038;-74
2022/12/21 05:11:39;;;;;;;;;;;;;;;;;;6241227;23;19919;-73
2022/12/21 05:14:04;;;;;;;;;;;;;;;;;;6241357;23;19912;-73
2022/12/21 05:16:30;;;;;;;;;;;;;;;;;;6241122;23;19989;-73
2022/12/21 05:18:56;;;;;;;;;;;;;;;;;;6241184;23;20250;-74
2022/12/21 05:21:21;;;;;;;;;;;;;;;;;;6241491;23;19907;-73
2022/12/21 05:23:47;;;;;;;;;;;;;;;;;;6241107;23;19923;-74
2022/12/21 05:26:13;;;;;;;;;;;;;;;;;;6242511;23;19915;-80
2022/12/21 05:28:38;;;;;;;;;;;;;;;;;;6243184;23;19922;-79
2022/12/21 05:31:04;;;;;;;;;;;;;;;;;;6244995;23;20015;-80
2022/12/21 05:33:29;;;;;;;;;;;;;;;;;;6243374;23;19950;-79
2022/12/21 05:35:55;;;;;;;;;;;;;;;;;;6246078;23;19916;-80
2022/12/21 05:38:21;;;;;;;;;;;;;;;;;;6217336;23;19912;-79
2022/12/21 05:40:47;;;;;;;;;;;;;;;;;;6168803;23;19912;-80
2022/12/21 05:43:12;;;;;;;;;;;;;;;;;;6218171;23;20323;-81
2022/12/21 05:45:38;;;;;;;;;;;;;;;;;;6239967;23;19958;-78
2022/12/21 05:48:03;;;;;;;;;;;;;;;;;;6240137;23;20345;-78
2022/12/21 05:50:29;;;;;;;;;;;;;;;;;;6241090;23;19911;-76
2022/12/21 05:52:55;;;;;;;;;;;;;;;;;;6240688;23;19911;-77
2022/12/21 05:55:21;;;;;;;;;;;;;;;;;;6240785;23;20038;-78
2022/12/21 05:57:46;;;;;;;;;;;;;;;;;;6241496;23;19911;-77
2022/12/21 06:00:12;;;;;;;;;;;;;;;;;;6240107;23;19978;-77
2022/12/21 06:02:37;;;;;;;;;;;;;;;;;;6240572;23;19939;-76
2022/12/21 06:05:03;;;;;;;;;;;;;;;;;;6240616;23;19985;-76
2022/12/21 06:07:29;;;;;;;;;;;;;;;;;;6240531;23;19947;-73
2022/12/21 06:09:55;;;;;;;;;;;;;;;;;;6214346;23;20276;-77
2022/12/21 06:12:21;;;;;;;;;;;;;;;;;;6240983;23;19912;-76
2022/12/21 06:14:46;;;;;;;;;;;;;;;;;;6241231;23;19911;-77
2022/12/21 06:17:12;;;;;;;;;;;;;;;;;;6214622;23;19912;-75
2022/12/21 06:19:38;;;;;;;;;;;;;;;;;;6215453;23;19935;-80
2022/12/21 06:22:04;;;;;;;;;;;;;;;;;;6243696;23;19908;-77
2022/12/21 06:24:55;;;;;;;;;;;;;;;;;;6242519;23;20366;-79
2022/12/21 06:27:21;;;;;;;;;;;;;;;;;;6216946;23;19954;-78
2022/12/21 06:29:47;;;;;;;;;;;;;;;;;;6242345;23;19927;-76
2022/12/21 06:32:12;;;;;;;;;;;;;;;;;;6213582;23;19970;-77
2022/12/21 06:34:38;;;;;;;;;;;;;;;;;;6239986;23;19912;-75
2022/12/21 06:37:04;;;;;;;;;;;;;;;;;;6245499;23;20332;-80
2022/12/21 06:39:29;;;;;;;;;;;;;;;;;;6248426;23;19915;-81
2022/12/21 06:42:04;;;;;;;;;;;;;;;;;;6246609;23;20434;-77
2022/12/21 06:44:33;;;;;;;;;;;;;;;;;;6241404;23;19916;-78
2022/12/21 06:46:59;;;;;;;;;;;;;;;;;;6214546;23;20389;-79
2022/12/21 06:49:24;;;;;;;;;;;;;;;;;;6214686;23;20336;-79
2022/12/21 06:51:50;;;;;;;;;;;;;;;;;;6227526;23;19918;-81
2022/12/21 06:54:16;;;;;;;;;;;;;;;;;;6254058;23;19934;-79
2022/12/21 06:56:41;;;;;;;;;;;;;;;;;;6247287;23;19912;-83
2022/12/21 06:59:07;;;;;;;;;;;;;;;;;;6207451;23;19915;-82
2022/12/21 07:01:32;;;;;;;;;;;;;;;;;;6261754;22;19915;-82
2022/12/21 07:03:59;;;;;;;;;;;;;;;;;;6236397;23;19911;-83
2022/12/21 07:06:25;;;;;;;;;;;;;;;;;;6263596;23;19949;-82
2022/12/21 07:08:50;;;;;;;;;;;;;;;;;;6236760;23;19912;-81
2022/12/21 07:11:16;;;;;;;;;;;;;;;;;;6231546;23;20306;-83
2022/12/21 07:13:42;;;;;;;;;;;;;;;;;;6233427;23;19892;-82
2022/12/21 07:16:07;;;;;;;;;;;;;;;;;;6231935;23;19912;-83
2022/12/21 07:18:34;;;;;;;;;;;;;;;;;;6229934;23;19938;-81
2022/12/21 07:21:02;;;;;;;;;;;;;;;;;;6233592;23;19911;-81
2022/12/21 07:23:28;;;;;;;;;;;;;;;;;;6235458;23;19912;-83
2022/12/21 07:25:53;;;;;;;;;;;;;;;;;;6235266;23;19916;-82
2022/12/21 07:28:19;;;;;;;;;;;;;;;;;;6235321;23;19912;-83
2022/12/21 07:30:48;;;;;;;;;;;;;;;;;;6235659;23;19911;-82
2022/12/21 07:33:13;;;;;;;;;;;;;;;;;;6234786;23;19926;-82
2022/12/21 07:35:39;;;;;;;;;;;;;;;;;;6237261;23;19912;-82
2022/12/21 07:38:05;;;;;;;;;;;;;;;;;;6235227;23;19912;-83
2022/12/21 07:40:30;;;;;;;;;;;;;;;;;;6208134;23;19970;-81
2022/12/21 07:42:56;;;;;;;;;;;;;;;;;;6231410;23;20038;-82
2022/12/21 07:45:31;;;;;;;;;;;;;;;;;;6233676;23;19964;-81
2022/12/21 07:47:57;;;;;;;;;;;;;;;;;;6234719;23;19892;-81
2022/12/21 07:50:23;;;;;;;;;;;;;;;;;;6235987;23;19900;-81
2022/12/21 07:52:49;;;;;;;;;;;;;;;;;;6236205;23;20415;-82
2022/12/21 07:55:14;;;;;;;;;;;;;;;;;;6235184;23;20253;-81
2022/12/21 07:57:40;;;;;;;;;;;;;;;;;;6236026;23;19896;-82
2022/12/21 08:00:09;;;;;;;;;;;;;;;;;;6234713;23;19972;-82
2022/12/21 08:02:40;;;;;;;;;;;;;;;;;;6234387;23;19912;-82
2022/12/21 08:05:06;;;;;;;;;;;;;;;;;;6233459;23;20359;-82
2022/12/21 08:07:32;;;;;;;;;;;;;;;;;;6232279;23;19916;-83
2022/12/21 08:09:58;;;;;;;;;;;;;;;;;;6236637;23;19912;-82
2022/12/21 08:12:23;;;;;;;;;;;;;;;;;;6264526;23;19965;-81
2022/12/21 08:14:49;;;;;;;;;;;;;;;;;;6265966;23;19911;-82
2022/12/21 08:17:16;;;;;;;;;;;;;;;;;;6266908;23;19963;-83
2022/12/21 08:19:42;;;;;;;;;;;;;;;;;;6266720;23;19981;-82
2022/12/21 08:22:07;;;;;;;;;;;;;;;;;;6239576;23;19912;-83
2022/12/21 08:24:33;;;;;;;;;;;;;;;;;;6263776;23;19959;-84
2022/12/21 08:26:59;;;;;;;;;;;;;;;;;;6262895;23;19911;-83
2022/12/21 08:29:24;;;;;;;;;;;;;;;;;;6263234;23;19912;-83
2022/12/21 08:31:50;;;;;;;;;;;;;;;;;;6239722;23;19912;-81
2022/12/21 08:34:16;;;;;;;;;;;;;;;;;;6265913;23;19939;-84
2022/12/21 08:36:41;;;;;;;;;;;;;;;;;;6266618;23;20241;-83
2022/12/21 08:39:07;;;;;;;;;;;;;;;;;;6265222;23;20432;-83
2022/12/21 08:41:33;;;;;;;;;;;;;;;;;;6264877;23;20268;-83
2022/12/21 08:43:58;;;;;;;;;;;;;;;;;;6262007;23;19911;-83
2022/12/21 08:46:24;;;;;;;;;;;;;;;;;;6264262;22;19915;-82
2022/12/21 08:48:50;;;;;;;;;;;;;;;;;;6266206;23;19947;-82
2022/12/21 08:51:16;;;;;;;;;;;;;;;;;;6266266;23;19912;-82
2022/12/21 08:53:41;;;;;;;;;;;;;;;;;;6238226;23;19943;-84
2022/12/21 08:56:07;;;;;;;;;;;;;;;;;;6262522;23;19911;-82
2022/12/21 08:58:33;;;;;;;;;;;;;;;;;;6262470;23;19922;-82
2022/12/21 09:00:58;;;;;;;;;;;;;;;;;;6237112;23;19912;-82
2022/12/21 09:03:26;;;;;;;;;;;;;;;;;;6264381;23;19912;-83
2022/12/21 09:05:52;;;;;;;;;;;;;;;;;;6262803;23;19919;-82
2022/12/21 09:08:18;;;;;;;;;;;;;;;;;;6236297;23;19911;-83
2022/12/21 09:10:44;;;;;;;;;;;;;;;;;;6264782;23;19981;-82
2022/12/21 09:13:09;;;;;;;;;;;;;;;;;;6264055;23;19942;-83
2022/12/21 09:15:35;;;;;;;;;;;;;;;;;;6237297;23;19919;-82
2022/12/21 09:18:01;;;;;;;;;;;;;;;;;;6264444;23;19892;-83
2022/12/21 09:20:27;;;;;;;;;;;;;;;;;;6265443;23;19918;-83
2022/12/21 09:22:52;;;;;;;;;;;;;;;;;;6264131;23;20095;-83
2022/12/21 09:25:18;;;;;;;;;;;;;;;;;;6236525;23;19912;-83
2022/12/21 09:27:44;;;;;;;;;;;;;;;;;;6261898;23;20209;-83
2022/12/21 09:30:09;;;;;;;;;;;;;;;;;;6263608;23;19941;-83
2022/12/21 09:32:35;;;;;;;;;;;;;;;;;;6236414;23;19912;-82
2022/12/21 09:35:01;;;;;;;;;;;;;;;;;;6262282;23;19935;-83
2022/12/21 09:37:27;;;;;;;;;;;;;;;;;;6262687;23;19911;-82
2022/12/21 09:39:53;;;;;;;;;;;;;;;;;;6261289;23;19946;-82
2022/12/21 09:42:19;;;;;;;;;;;;;;;;;;6263070;23;19947;-83
2022/12/21 09:44:44;;;;;;;;;;;;;;;;;;6263418;23;19912;-82
2022/12/21 09:47:10;;;;;;;;;;;;;;;;;;6264678;23;19911;-82
2022/12/21 09:49:36;;;;;;;;;;;;;;;;;;6264284;23;19934;-81
2022/12/21 09:52:01;;;;;;;;;;;;;;;;;;6243273;23;19959;-82
2022/12/21 09:54:27;;;;;;;;;;;;;;;;;;6243685;23;19911;-81
2022/12/21 09:56:54;;;;;;;;;;;;;;;;;;6269249;23;19951;-82
2022/12/21 09:59:20;;;;;;;;;;;;;;;;;;6268923;22;19934;-82
2022/12/21 10:01:45;;;;;;;;;;;;;;;;;;6268594;23;19895;-82
2022/12/21 10:04:11;;;;;;;;;;;;;;;;;;6212882;23;19911;-82
2022/12/21 10:06:37;;;;;;;;;;;;;;;;;;6255561;23;19919;-83
2022/12/21 10:09:02;;;;;;;;;;;;;;;;;;6257281;23;19922;-83
2022/12/21 10:11:28;;;;;;;;;;;;;;;;;;6257629;23;19919;-83
2022/12/21 10:13:54;;;;;;;;;;;;;;;;;;6210366;23;19955;-82
2022/12/21 10:16:20;;;;;;;;;;;;;;;;;;6234428;23;19969;-84
2022/12/21 10:18:45;;;;;;;;;;;;;;;;;;6255531;23;19926;-82
2022/12/21 10:21:12;;;;;;;;;;;;;;;;;;6253342;23;19918;-82
2022/12/21 10:23:38;;;;;;;;;;;;;;;;;;6255940;23;19912;-83
2022/12/21 10:26:03;;;;;;;;;;;;;;;;;;6257737;23;19912;-82
2022/12/21 10:28:29;;;;;;;;;;;;;;;;;;6258464;23;19911;-83
2022/12/21 10:30:55;;;;;;;;;;;;;;;;;;6234018;23;19911;-83
2022/12/21 10:33:20;;;;;;;;;;;;;;;;;;6261626;23;19907;-83
2022/12/21 10:35:47;;;;;;;;;;;;;;;;;;6263672;23;19955;-82
2022/12/21 10:38:13;;;;;;;;;;;;;;;;;;6237004;23;19918;-82
2022/12/21 10:40:39;;;;;;;;;;;;;;;;;;6265491;23;19906;-82
2022/12/21 10:43:07;;;;;;;;;;;;;;;;;;6265684;23;19887;-82
2022/12/21 10:45:33;;;;;;;;;;;;;;;;;;6263279;23;19915;-83
2022/12/21 10:47:59;;;;;;;;;;;;;;;;;;6235900;23;19911;-82
2022/12/21 10:50:25;;;;;;;;;;;;;;;;;;6264643;23;19904;-83
2022/12/21 10:52:50;;;;;;;;;;;;;;;;;;6264151;23;19934;-82
2022/12/21 10:55:16;;;;;;;;;;;;;;;;;;6266349;23;19959;-83
2022/12/21 10:57:42;;;;;;;;;;;;;;;;;;6264497;23;19912;-83
2022/12/21 11:00:08;;;;;;;;;;;;;;;;;;6264185;23;20367;-83
2022/12/21 11:02:34;;;;;;;;;;;;;;;;;;6265009;23;20370;-82
2022/12/21 11:05:00;;;;;;;;;;;;;;;;;;6262593;23;19911;-82
2022/12/21 11:07:28;;;;;;;;;;;;;;;;;;6233645;23;19943;-81
2022/12/21 11:09:54;;;;;;;;;;;;;;;;;;6235204;23;19912;-82
2022/12/21 11:12:20;;;;;;;;;;;;;;;;;;6233658;23;19915;-83
2022/12/21 11:14:46;;;;;;;;;;;;;;;;;;6262922;23;19915;-82
2022/12/21 11:17:11;;;;;;;;;;;;;;;;;;6261388;23;19911;-81
2022/12/21 11:19:40;;;;;;;;;;;;;;;;;;6263189;23;19927;-83
2022/12/21 11:22:05;;;;;;;;;;;;;;;;;;6263116;23;19996;-82
2022/12/21 11:24:31;;;;;;;;;;;;;;;;;;6263511;23;20149;-81
2022/12/21 11:26:57;;;;;;;;;;;;;;;;;;6261143;23;19934;-82
2022/12/21 11:29:22;;;;;;;;;;;;;;;;;;6262323;23;19918;-82
2022/12/21 11:31:48;;;;;;;;;;;;;;;;;;6260580;23;19911;-82
2022/12/21 11:34:14;;;;;;;;;;;;;;;;;;6259461;23;19933;-81
2022/12/21 11:36:39;;;;;;;;;;;;;;;;;;6257489;23;19934;-82
2022/12/21 11:39:05;;;;;;;;;;;;;;;;;;6258354;23;19946;-82
2022/12/21 11:41:31;;;;;;;;;;;;;;;;;;6260229;23;19915;-81
2022/12/21 11:43:57;;;;;;;;;;;;;;;;;;6261953;23;20338;-82
2022/12/21 11:46:25;;;;;;;;;;;;;;;;;;6262156;23;19911;-83
2022/12/21 11:48:51;;;;;;;;;;;;;;;;;;6259286;23;19912;-82
2022/12/21 11:51:17;;;;;;;;;;;;;;;;;;6260244;23;19918;-82
2022/12/21 11:53:42;;;;;;;;;;;;;;;;;;6207017;23;19935;-84
2022/12/21 11:56:11;;;;;;;;;;;;;;;;;;6235140;23;20006;-81
2022/12/21 11:58:36;;;;;;;;;;;;;;;;;;6261385;23;19911;-83
2022/12/21 12:01:02;;;;;;;;;;;;;;;;;;6262895;23;19921;-83
2022/12/21 12:03:28;;;;;;;;;;;;;;;;;;6264774;23;19911;-83
2022/12/21 12:05:53;;;;;;;;;;;;;;;;;;6238112;23;19971;-84
2022/12/21 12:08:19;;;;;;;;;;;;;;;;;;6237724;23;19934;-83
2022/12/21 12:10:45;;;;;;;;;;;;;;;;;;6241253;23;20364;-84
2022/12/21 12:13:10;;;;;;;;;;;;;;;;;;6264481;23;19964;-83
2022/12/21 12:15:37;;;;;;;;;;;;;;;;;;6264961;23;19923;-82
2022/12/21 12:18:02;;;;;;;;;;;;;;;;;;6256193;23;19915;-79
2022/12/21 12:20:28;;;;;;;;;;;;;;;;;;6224409;23;19915;-84
2022/12/21 12:22:54;;;;;;;;;;;;;;;;;;6267799;22;19955;-83
2022/12/21 12:25:19;;;;;;;;;;;;;;;;;;6249316;23;20341;-80
2022/12/21 12:27:45;;;;;;;;;;;;;;;;;;6246355;23;19911;-80
2022/12/21 12:30:14;;;;;;;;;;;;;;;;;;6246541;23;19937;-80
2022/12/21 12:32:40;;;;;;;;;;;;;;;;;;6247620;23;19911;-80
2022/12/21 12:35:08;;;;;;;;;;;;;;;;;;6246638;23;20363;-80
2022/12/21 12:37:34;;;;;;;;;;;;;;;;;;6218903;23;19945;-79
2022/12/21 12:40:00;;;;;;;;;;;;;;;;;;6243948;23;20676;-80
2022/12/21 12:42:26;;;;;;;;;;;;;;;;;;6220761;23;20322;-80
2022/12/21 12:44:52;;;;;;;;;;;;;;;;;;6219192;23;19919;-80
2022/12/21 12:47:20;;;;;;;;;;;;;;;;;;6221595;23;19903;-79
2022/12/21 12:49:46;;;;;;;;;;;;;;;;;;6198484;23;19994;-81
2022/12/21 12:52:12;;;;;;;;;;;;;;;;;;6248782;23;19912;-80
2022/12/21 12:54:37;;;;;;;;;;;;;;;;;;6245821;23;19912;-80
2022/12/21 12:57:03;;;;;;;;;;;;;;;;;;6216867;23;19923;-80
2022/12/21 12:59:29;;;;;;;;;;;;;;;;;;6193201;23;19977;-79
2022/12/21 13:01:57;;;;;;;;;;;;;;;;;;6245305;23;19912;-81
2022/12/21 13:04:28;;;;;;;;;;;;;;;;;;6220096;23;19998;-81
2022/12/21 13:06:53;;;;;;;;;;;;;;;;;;6241743;23;19954;-77
2022/12/21 13:09:20;;;;;;;;;;;;;;;;;;6246002;23;19912;-79
2022/12/21 13:11:45;;;;;;;;;;;;;;;;;;6247920;23;19986;-81
2022/12/21 13:14:11;;;;;;;;;;;;;;;;;;6247738;23;19916;-80
2022/12/21 13:16:37;;;;;;;;;;;;;;;;;;6248888;23;19912;-80
2022/12/21 13:19:02;;;;;;;;;;;;;;;;;;6195198;23;19972;-80
2022/12/21 13:21:28;;;;;;;;;;;;;;;;;;6219473;23;19911;-79
2022/12/21 13:23:54;;;;;;;;;;;;;;;;;;6219194;23;20382;-80
2022/12/21 13:26:20;;;;;;;;;;;;;;;;;;6243879;23;19915;-80
2022/12/21 13:28:45;;;;;;;;;;;;;;;;;;6218722;23;19933;-80
2022/12/21 13:31:12;;;;;;;;;;;;;;;;;;6245654;23;20470;-80
2022/12/21 13:33:38;;;;;;;;;;;;;;;;;;6245426;23;20610;-81
2022/12/21 13:36:04;;;;;;;;;;;;;;;;;;6244195;23;19915;-80
2022/12/21 13:38:29;;;;;;;;;;;;;;;;;;6244475;23;19912;-81
2022/12/21 13:40:55;;;;;;;;;;;;;;;;;;6243455;23;19919;-81
2022/12/21 13:43:20;;;;;;;;;;;;;;;;;;6243882;23;19947;-79
2022/12/21 13:45:47;;;;;;;;;;;;;;;;;;6243901;23;19963;-80
2022/12/21 13:48:13;;;;;;;;;;;;;;;;;;6245037;23;19911;-80
2022/12/21 13:50:39;;;;;;;;;;;;;;;;;;6244258;23;20533;-80
2022/12/21 13:53:05;;;;;;;;;;;;;;;;;;6247993;23;19927;-81
2022/12/21 13:55:31;;;;;;;;;;;;;;;;;;6226573;23;19923;-85
2022/12/21 13:57:56;;;;;;;;;;;;;;;;;;6258616;23;19911;-87
2022/12/21 14:00:22;;;;;;;;;;;;;;;;;;6263140;23;19919;-85
2022/12/21 14:02:48;;;;;;;;;;;;;;;;;;6262662;23;19942;-85
2022/12/21 14:05:14;;;;;;;;;;;;;;;;;;6262171;23;19907;-85
2022/12/21 14:07:39;;;;;;;;;;;;;;;;;;6210477;23;19960;-85
2022/12/21 14:10:05;;;;;;;;;;;;;;;;;;6236715;23;19930;-88
2022/12/21 14:12:30;;;;;;;;;;;;;;;;;;6239221;23;19896;-86
2022/12/21 14:14:56;;;;;;;;;;;;;;;;;;6239745;23;19919;-89
2022/12/21 14:17:22;;;;;;;;;;;;;;;;;;6237661;23;19923;-87
2022/12/21 14:19:47;;;;;;;;;;;;;;;;;;6239960;23;19921;-88
2022/12/21 14:22:13;;;;;;;;;;;;;;;;;;6239344;23;19912;-84
2022/12/21 14:24:39;;;;;;;;;;;;;;;;;;6241433;23;20002;-86
2022/12/21 14:27:04;;;;;;;;;;;;;;;;;;6241566;23;19939;-88
2022/12/21 14:29:30;;;;;;;;;;;;;;;;;;6214681;23;19960;-83
2022/12/21 14:31:56;;;;;;;;;;;;;;;;;;6223171;23;19912;-81
2022/12/21 14:34:22;;;;;;;;;;;;;;;;;;6217923;23;19943;-82
2022/12/21 14:36:47;;;;;;;;;;;;;;;;;;6221193;23;19912;-83
2022/12/21 14:39:13;;;;;;;;;;;;;;;;;;6220883;23;20013;-84
2022/12/21 14:41:39;;;;;;;;;;;;;;;;;;6223763;23;19995;-84
2022/12/21 14:44:04;;;;;;;;;;;;;;;;;;6221066;23;19919;-82
2022/12/21 14:46:30;;;;;;;;;;;;;;;;;;6219643;23;19911;-83
2022/12/21 14:48:55;;;;;;;;;;;;;;;;;;6217410;23;19912;-82
2022/12/21 14:51:21;;;;;;;;;;;;;;;;;;6222735;23;19938;-82
2022/12/21 14:53:47;;;;;;;;;;;;;;;;;;6226788;23;19912;-83
2022/12/21 14:56:12;;;;;;;;;;;;;;;;;;6233008;23;19919;-82
2022/12/21 14:58:38;;;;;;;;;;;;;;;;;;6230201;23;19919;-84
2022/12/21 15:01:03;;;;;;;;;;;;;;;;;;6231777;23;19923;-83
2022/12/21 15:03:29;;;;;;;;;;;;;;;;;;6230241;23;19911;-83
2022/12/21 15:05:55;;;;;;;;;;;;;;;;;;6231058;23;19956;-84
2022/12/21 15:08:21;;;;;;;;;;;;;;;;;;6232212;23;19912;-84
2022/12/21 15:10:48;;;;;;;;;;;;;;;;;;6249047;23;19904;-82
2022/12/21 15:13:13;;;;;;;;;;;;;;;;;;6239940;23;19915;-82
2022/12/21 15:15:39;;;;;;;;;;;;;;;;;;6267686;22;19964;-82
2022/12/21 15:18:04;;;;;;;;;;;;;;;;;;6267469;23;19926;-82
2022/12/21 15:20:30;;;;;;;;;;;;;;;;;;6267378;23;19919;-82
2022/12/21 15:22:56;;;;;;;;;;;;;;;;;;6184727;23;19938;-84
2022/12/21 15:25:21;;;;;;;;;;;;;;;;;;6256436;23;19912;-82
2022/12/21 15:27:47;;;;;;;;;;;;;;;;;;6258922;23;19916;-80
2022/12/21 15:30:12;;;;;;;;;;;;;;;;;;6256600;23;19911;-83
2022/12/21 15:32:38;;;;;;;;;;;;;;;;;;6260529;23;19916;-83
2022/12/21 15:35:04;;;;;;;;;;;;;;;;;;6244759;23;19918;-81
2022/12/21 15:37:29;;;;;;;;;;;;;;;;;;6217824;23;19930;-81
2022/12/21 15:39:55;;;;;;;;;;;;;;;;;;6220732;23;20010;-81
2022/12/21 15:42:21;;;;;;;;;;;;;;;;;;6167888;23;19911;-81
2022/12/21 15:44:46;;;;;;;;;;;;;;;;;;6249687;23;19986;-80
2022/12/21 15:47:12;;;;;;;;;;;;;;;;;;6244580;23;19916;-79
2022/12/21 15:49:38;;;;;;;;;;;;;;;;;;6217474;23;19907;-80
2022/12/21 15:52:03;;;;;;;;;;;;;;;;;;6241727;23;20449;-79
2022/12/21 15:54:29;;;;;;;;;;;;;;;;;;6244658;23;19957;-81
2022/12/21 15:56:54;;;;;;;;;;;;;;;;;;6261575;22;19927;-84
2022/12/21 15:59:20;;;;;;;;;;;;;;;;;;6194910;23;19973;-80
2022/12/21 16:01:46;;;;;;;;;;;;;;;;;;6242158;23;20348;-79
2022/12/21 16:04:11;;;;;;;;;;;;;;;;;;6217593;23;20016;-83
2022/12/21 16:06:37;;;;;;;;;;;;;;;;;;6248136;23;20399;-81
2022/12/21 16:09:06;;;;;;;;;;;;;;;;;;6223134;23;19892;-83
2022/12/21 16:11:31;;;;;;;;;;;;;;;;;;6238206;23;19915;-84
2022/12/21 16:13:57;;;;;;;;;;;;;;;;;;6268676;22;19923;-86
2022/12/21 16:16:22;;;;;;;;;;;;;;;;;;6220118;23;19922;-87
2022/12/21 16:18:48;;;;;;;;;;;;;;;;;;6269280;22;20299;-87
2022/12/21 16:21:17;;;;;;;;;;;;;;;;;;6235305;23;19900;-84
2022/12/21 16:23:43;;;;;;;;;;;;;;;;;;6234366;23;20045;-86
2022/12/21 16:26:08;;;;;;;;;;;;;;;;;;6213838;23;20267;-80
2022/12/21 16:28:34;;;;;;;;;;;;;;;;;;6218903;23;19912;-80
2022/12/21 16:31:00;;;;;;;;;;;;;;;;;;6244013;23;19965;-80
2022/12/21 16:33:25;;;;;;;;;;;;;;;;;;6192976;23;19912;-81
2022/12/21 16:35:51;;;;;;;;;;;;;;;;;;6242684;23;19911;-81
2022/12/21 16:38:17;;;;;;;;;;;;;;;;;;6216620;23;20297;-80
2022/12/21 16:40:42;;;;;;;;;;;;;;;;;;6243917;23;19926;-81
2022/12/21 16:43:08;;;;;;;;;;;;;;;;;;6216412;23;20356;-80
2022/12/21 16:45:36;;;;;;;;;;;;;;;;;;6243018;23;19954;-80
2022/12/21 16:48:01;;;;;;;;;;;;;;;;;;6217311;23;20388;-81
2022/12/21 16:50:27;;;;;;;;;;;;;;;;;;6192085;23;19912;-80
2022/12/21 16:52:53;;;;;;;;;;;;;;;;;;6242435;23;19911;-78